createdAt,value
2022-12-15T00:00:47.171Z,-1.16
2022-12-15T00:04:08.084Z,-1.19
2022-12-15T00:07:28.668Z,-1.26
2022-12-15T00:10:49.652Z,-1.19
2022-12-15T00:14:10.327Z,-1.38
2022-12-15T00:17:31.084Z,-1.17
2022-12-15T00:20:51.740Z,-1.25
2022-12-15T00:24:12.533Z,-1.28
2022-12-15T00:27:33.271Z,-1.21
2022-12-15T00:31:00.456Z,-1.20
2022-12-15T00:34:23.090Z,-1.27
2022-12-15T00:37:44.036Z,-1.31
2022-12-15T00:40:46.218Z,-1.14
2022-12-15T00:43:48.797Z,-1.27
2022-12-15T00:46:56.853Z,-1.07
2022-12-15T00:50:17.929Z,-1.25
2022-12-15T00:53:42.650Z,-1.23
2022-12-15T00:57:03.316Z,-1.03
2022-12-15T01:00:24.514Z,-1.09
2022-12-15T01:03:45.508Z,-1.17
2022-12-15T01:07:06.741Z,-1.23
2022-12-15T01:10:27.650Z,-1.12
2022-12-15T01:13:49.731Z,-1.30
2022-12-15T01:17:10.776Z,-1.38
2022-12-15T01:20:18.863Z,-1.42
2022-12-15T01:23:21.276Z,-1.51
2022-12-15T01:26:23.583Z,-1.53
2022-12-15T01:29:26.065Z,-1.65
2022-12-15T01:32:28.451Z,-1.73
2022-12-15T01:35:30.603Z,-1.57
2022-12-15T01:38:32.824Z,-1.92
2022-12-15T01:41:35.021Z,-1.91
2022-12-15T01:44:37.197Z,-1.97
2022-12-15T01:47:39.451Z,-1.95
2022-12-15T01:50:48.380Z,-2.04
2022-12-15T01:54:07.922Z,-1.91
2022-12-15T01:57:14.088Z,-1.73
2022-12-15T02:00:16.819Z,-1.84
2022-12-15T02:03:19.419Z,-1.79
2022-12-15T02:06:22.566Z,-1.76
2022-12-15T02:09:25.829Z,-1.87
2022-12-15T02:12:49.276Z,-1.93
2022-12-15T02:15:59.967Z,-1.84
2022-12-15T02:19:23.944Z,-1.56
2022-12-15T02:22:59.445Z,-1.69
2022-12-15T02:26:20.213Z,-1.66
2022-12-15T02:29:39.370Z,-1.73
2022-12-15T02:32:48.145Z,-1.72
2022-12-15T02:35:58.279Z,-1.75
2022-12-15T02:39:00.452Z,-1.65
2022-12-15T02:42:02.594Z,-1.50
2022-12-15T02:45:08.592Z,-1.53
2022-12-15T02:48:30.429Z,-1.71
2022-12-15T02:52:00.672Z,-1.60
2022-12-15T02:55:38.158Z,-1.66
2022-12-15T02:58:42.940Z,-1.35
2022-12-15T03:01:52.239Z,-1.38
2022-12-15T03:04:55.314Z,-1.46
2022-12-15T03:07:57.584Z,-1.17
2022-12-15T03:10:59.790Z,-1.23
2022-12-15T03:14:02.047Z,-1.26
2022-12-15T03:17:07.133Z,-1.23
2022-12-15T03:20:10.337Z,-1.38
2022-12-15T03:23:12.500Z,-1.53
2022-12-15T03:26:14.672Z,-1.59
2022-12-15T03:29:17.798Z,-1.45
2022-12-15T03:32:19.978Z,-1.46
2022-12-15T03:35:22.204Z,-1.47
2022-12-15T03:38:24.456Z,-1.53
2022-12-15T03:41:26.620Z,-1.54
2022-12-15T03:44:28.791Z,-1.59
2022-12-15T03:47:30.980Z,-1.41
2022-12-15T03:50:33.179Z,-1.56
2022-12-15T03:53:35.536Z,-1.52
2022-12-15T03:56:37.692Z,-1.57
2022-12-15T03:59:39.912Z,-1.69
2022-12-15T04:02:43.146Z,-1.81
2022-12-15T04:05:45.567Z,-1.79
2022-12-15T04:08:49.761Z,-1.87
2022-12-15T04:11:52.094Z,-1.81
2022-12-15T04:14:54.317Z,-1.91
2022-12-15T04:17:57.015Z,-1.79
2022-12-15T04:20:59.190Z,-1.79
2022-12-15T04:24:19.949Z,-1.88
2022-12-15T04:27:40.780Z,-1.92
2022-12-15T04:31:07.939Z,-1.83
2022-12-15T04:34:31.722Z,-1.83
2022-12-15T04:37:52.488Z,-1.51
2022-12-15T04:41:13.299Z,-1.58
2022-12-15T04:44:34.009Z,-1.42
2022-12-15T04:47:54.833Z,-1.23
2022-12-15T04:51:16.591Z,-1.39
2022-12-15T04:54:37.460Z,-1.38
2022-12-15T04:57:58.335Z,-1.24
2022-12-15T05:01:18.986Z,-0.84
2022-12-15T05:04:40.015Z,-1.00
2022-12-15T05:08:00.973Z,-1.17
2022-12-15T05:11:21.823Z,-1.15
2022-12-15T05:14:42.700Z,-1.19
2022-12-15T05:18:03.629Z,-1.32
2022-12-15T05:21:24.940Z,-1.45
2022-12-15T05:24:45.568Z,-1.31
2022-12-15T05:28:06.407Z,-1.17
2022-12-15T05:31:27.782Z,-1.07
2022-12-15T05:34:35.426Z,-1.15
2022-12-15T05:37:38.663Z,-1.30
2022-12-15T05:40:40.910Z,-1.24
2022-12-15T05:43:43.106Z,-0.89
2022-12-15T05:46:45.975Z,-1.10
2022-12-15T05:49:49.222Z,-1.32
2022-12-15T05:52:51.475Z,-1.32
2022-12-15T05:55:53.632Z,-1.14
2022-12-15T05:58:57.475Z,-1.30
2022-12-15T06:01:59.816Z,-1.44
2022-12-15T06:05:02.213Z,-1.44
2022-12-15T06:08:04.691Z,-1.28
2022-12-15T06:11:07.416Z,-1.18
2022-12-15T06:14:09.813Z,-1.02
2022-12-15T06:17:11.972Z,-0.89
2022-12-15T06:20:14.260Z,-0.85
2022-12-15T06:23:16.468Z,-1.05
2022-12-15T06:26:24.145Z,-1.04
2022-12-15T06:29:26.354Z,-1.13
2022-12-15T06:32:28.572Z,-0.97
2022-12-15T06:35:30.798Z,-0.95
2022-12-15T06:38:34.014Z,-0.98
2022-12-15T06:41:36.511Z,-1.06
2022-12-15T06:44:38.684Z,-1.12
2022-12-15T06:47:40.878Z,-1.18
2022-12-15T06:50:43.075Z,-1.19
2022-12-15T06:53:55.504Z,-1.07
2022-12-15T06:56:57.800Z,-1.33
2022-12-15T06:59:59.961Z,-1.13
2022-12-15T07:03:03.589Z,-0.78
2022-12-15T07:06:08.509Z,-0.59
2022-12-15T07:09:16.067Z,-0.47
2022-12-15T07:12:18.266Z,-0.65
2022-12-15T07:15:20.426Z,-0.53
2022-12-15T07:18:22.630Z,-0.59
2022-12-15T07:21:24.822Z,-0.56
2022-12-15T07:24:27.037Z,-0.53
2022-12-15T07:27:29.209Z,-0.44
2022-12-15T07:30:38.298Z,-0.35
2022-12-15T07:33:41.410Z,-0.49
2022-12-15T07:36:48.465Z,-0.37
2022-12-15T07:39:53.862Z,-0.31
2022-12-15T07:42:56.018Z,-0.21
2022-12-15T07:45:58.393Z,0.04
2022-12-15T07:49:00.612Z,0.11
2022-12-15T07:52:02.816Z,0.27
2022-12-15T07:55:05.367Z,0.45
2022-12-15T07:58:07.599Z,0.56
2022-12-15T08:01:12.440Z,0.84
2022-12-15T08:04:15.068Z,0.78
2022-12-15T08:07:17.381Z,0.58
2022-12-15T08:10:19.594Z,0.52
2022-12-15T08:13:52.437Z,0.59
2022-12-15T08:16:43.990Z,0.67
2022-12-15T08:19:46.199Z,0.63
2022-12-15T08:22:48.368Z,0.67
2022-12-15T08:25:50.558Z,0.62
2022-12-15T08:28:52.764Z,0.73
2022-12-15T08:31:55.070Z,0.67
2022-12-15T08:34:57.340Z,0.58
2022-12-15T08:38:05.461Z,0.52
2022-12-15T08:41:16.015Z,0.46
2022-12-15T08:44:18.205Z,0.75
2022-12-15T08:47:20.390Z,0.85
2022-12-15T08:50:22.572Z,0.92
2022-12-15T08:53:33.062Z,0.89
2022-12-15T08:56:35.589Z,1.11
2022-12-15T08:59:37.815Z,0.87
2022-12-15T09:02:40.074Z,1.09
2022-12-15T09:05:42.348Z,1.07
2022-12-15T09:08:45.122Z,0.95
2022-12-15T09:11:52.564Z,1.06
2022-12-15T09:14:54.773Z,1.21
2022-12-15T09:17:56.972Z,1.50
2022-12-15T09:21:03.276Z,1.72
2022-12-15T09:24:05.771Z,1.76
2022-12-15T09:27:07.948Z,1.94
2022-12-15T09:30:13.425Z,1.68
2022-12-15T09:33:15.694Z,1.69
2022-12-15T09:36:18.055Z,1.48
2022-12-15T09:39:20.362Z,1.59
2022-12-15T09:42:27.527Z,1.54
2022-12-15T09:45:37.373Z,1.54
2022-12-15T09:48:42.162Z,1.17
2022-12-15T09:51:49.036Z,1.45
2022-12-15T09:54:51.385Z,0.99
2022-12-15T09:58:04.826Z,1.15
2022-12-15T10:01:21.287Z,1.17
2022-12-15T10:04:30.688Z,1.32
2022-12-15T10:07:37.583Z,1.37
2022-12-15T10:11:03.268Z,1.52
2022-12-15T10:14:13.733Z,1.58
2022-12-15T10:17:35.630Z,1.28
2022-12-15T10:20:38.130Z,1.03
2022-12-15T10:23:41.106Z,1.05
2022-12-15T10:26:44.619Z,1.24
2022-12-15T10:29:56.269Z,1.53
2022-12-15T10:33:03.673Z,1.70
2022-12-15T10:36:16.415Z,1.94
2022-12-15T10:39:20.717Z,2.03
2022-12-15T10:42:25.181Z,2.39
2022-12-15T10:45:36.131Z,2.28
2022-12-15T10:48:38.348Z,2.21
2022-12-15T10:51:45.455Z,2.39
2022-12-15T10:54:49.497Z,2.48
2022-12-15T10:58:00.097Z,2.42
2022-12-15T11:01:15.022Z,2.45
2022-12-15T11:04:35.143Z,2.34
2022-12-15T11:07:50.414Z,2.24
2022-12-15T11:11:16.619Z,2.33
2022-12-15T11:14:24.300Z,2.14
2022-12-15T11:17:40.864Z,2.29
2022-12-15T11:21:22.191Z,2.39
2022-12-15T11:24:43.680Z,2.28
2022-12-15T11:27:47.467Z,2.23
2022-12-15T11:31:00.571Z,2.29
2022-12-15T11:34:03.674Z,2.29
2022-12-15T11:37:17.925Z,2.12
2022-12-15T11:40:23.752Z,2.27
2022-12-15T11:43:27.702Z,2.36
2022-12-15T11:46:53.113Z,2.40
2022-12-15T11:50:29.115Z,2.40
2022-12-15T11:54:05.085Z,2.28
2022-12-15T11:57:35.664Z,2.27
2022-12-15T12:00:43.819Z,2.10
2022-12-15T12:03:58.074Z,2.23
2022-12-15T12:07:24.992Z,2.13
2022-12-15T12:10:54.994Z,2.15
2022-12-15T12:14:19.038Z,2.30
2022-12-15T12:17:31.479Z,2.20
2022-12-15T12:20:50.295Z,2.07
2022-12-15T12:24:01.076Z,1.93
2022-12-15T12:27:12.244Z,1.97
2022-12-15T12:30:17.880Z,2.20
2022-12-15T12:33:26.148Z,2.32
2022-12-15T12:36:28.370Z,2.23
2022-12-15T12:39:32.087Z,2.33
2022-12-15T12:42:40.202Z,2.26
2022-12-15T12:45:52.760Z,2.18
2022-12-15T12:49:08.993Z,2.08
2022-12-15T12:52:33.173Z,1.86
2022-12-15T12:55:44.364Z,2.10
2022-12-15T12:58:48.552Z,1.76
2022-12-15T13:01:50.970Z,1.89
2022-12-15T13:05:31.495Z,1.99
2022-12-15T13:08:55.813Z,1.84
2022-12-15T13:12:10.150Z,1.81
2022-12-15T13:15:31.636Z,1.72
2022-12-15T13:19:02.190Z,2.12
2022-12-15T13:22:04.892Z,1.90
2022-12-15T13:25:27.375Z,1.81
2022-12-15T13:28:45.526Z,1.82
2022-12-15T13:31:49.698Z,1.90
2022-12-15T13:34:53.035Z,2.06
2022-12-15T13:38:03.030Z,2.09
2022-12-15T13:41:24.399Z,2.22
2022-12-15T13:44:38.610Z,2.44
2022-12-15T13:47:41.045Z,2.22
2022-12-15T13:50:52.312Z,2.17
2022-12-15T13:54:17.238Z,1.98
2022-12-15T13:57:19.805Z,1.93
2022-12-15T14:00:22.856Z,1.89
2022-12-15T14:03:25.703Z,2.01
2022-12-15T14:06:34.664Z,1.82
2022-12-15T14:09:39.326Z,1.83
2022-12-15T14:12:41.867Z,1.81
2022-12-15T14:15:50.835Z,1.76
2022-12-15T14:19:22.789Z,1.77
2022-12-15T14:22:30.190Z,1.71
2022-12-15T14:25:32.877Z,2.11
2022-12-15T14:28:36.866Z,1.84
2022-12-15T14:31:40.703Z,1.64
2022-12-15T14:34:43.552Z,1.53
2022-12-15T14:37:45.817Z,1.43
2022-12-15T14:40:49.333Z,1.22
2022-12-15T14:44:31.379Z,1.52
2022-12-15T14:47:22.283Z,1.24
2022-12-15T14:50:25.406Z,1.37
2022-12-15T14:53:32.341Z,1.37
2022-12-15T14:56:34.947Z,1.32
2022-12-15T14:59:41.300Z,1.20
2022-12-15T15:02:44.321Z,1.17
2022-12-15T15:05:50.057Z,0.93
2022-12-15T15:08:53.087Z,1.05
2022-12-15T15:12:06.979Z,1.09
2022-12-15T15:15:15.371Z,1.08
2022-12-15T15:18:25.256Z,1.09
2022-12-15T15:21:29.799Z,0.85
2022-12-15T15:24:39.603Z,1.12
2022-12-15T15:27:42.245Z,1.28
2022-12-15T15:30:48.048Z,1.24
2022-12-15T15:33:56.867Z,1.32
2022-12-15T15:37:01.829Z,1.26
2022-12-15T15:40:06.467Z,1.34
2022-12-15T15:43:11.571Z,1.35
2022-12-15T15:46:18.978Z,1.51
2022-12-15T15:49:22.035Z,1.45
2022-12-15T15:52:24.207Z,1.54
2022-12-15T15:55:37.783Z,1.48
2022-12-15T15:58:43.748Z,1.33
2022-12-15T16:01:48.651Z,1.42
2022-12-15T16:04:50.943Z,1.18
2022-12-15T16:07:53.131Z,1.05
2022-12-15T16:10:55.360Z,0.98
2022-12-15T16:13:57.771Z,1.11
2022-12-15T16:17:00.095Z,0.98
2022-12-15T16:20:02.277Z,1.02
2022-12-15T16:23:23.155Z,0.87
2022-12-15T16:26:30.376Z,0.71
2022-12-15T16:29:32.512Z,0.66
2022-12-15T16:32:35.053Z,0.73
2022-12-15T16:35:37.681Z,0.81
2022-12-15T16:38:40.832Z,0.92
2022-12-15T16:41:43.074Z,0.87
2022-12-15T16:44:45.814Z,0.84
2022-12-15T16:47:48.210Z,0.75
2022-12-15T16:50:53.311Z,0.48
2022-12-15T16:53:58.416Z,0.47
2022-12-15T16:57:00.693Z,0.58
2022-12-15T17:00:17.441Z,0.69
2022-12-15T17:03:23.416Z,0.46
2022-12-15T17:06:26.021Z,0.50
2022-12-15T17:09:28.545Z,0.46
2022-12-15T17:12:30.882Z,0.48
2022-12-15T17:15:39.917Z,0.53
2022-12-15T17:18:42.983Z,0.58
2022-12-15T17:21:51.854Z,0.48
2022-12-15T17:24:54.218Z,0.45
2022-12-15T17:27:56.742Z,0.43
2022-12-15T17:30:59.653Z,0.55
2022-12-15T17:34:21.858Z,0.62
2022-12-15T17:37:26.194Z,0.79
2022-12-15T17:40:31.648Z,0.90
2022-12-15T17:43:36.207Z,1.12
2022-12-15T17:46:38.756Z,0.96
2022-12-15T17:49:41.786Z,0.73
2022-12-15T17:52:46.807Z,0.69
2022-12-15T17:55:51.286Z,0.83
2022-12-15T17:58:54.025Z,0.86
2022-12-15T18:01:57.445Z,0.80
2022-12-15T18:05:00.080Z,0.85
2022-12-15T18:08:07.234Z,0.84
2022-12-15T18:11:15.769Z,0.87
2022-12-15T18:14:19.674Z,0.93
2022-12-15T18:17:22.562Z,1.04
2022-12-15T18:20:25.604Z,1.00
2022-12-15T18:23:31.684Z,0.95
2022-12-15T18:26:38.068Z,0.80
2022-12-15T18:29:40.519Z,0.69
2022-12-15T18:32:43.859Z,0.59
2022-12-15T18:35:47.701Z,0.77
2022-12-15T18:38:50.099Z,0.83
2022-12-15T18:41:56.445Z,0.71
2022-12-15T18:45:00.555Z,0.49
2022-12-15T18:48:06.315Z,0.69
2022-12-15T18:51:16.991Z,0.70
2022-12-15T18:54:23.951Z,0.97
2022-12-15T18:57:36.031Z,0.68
2022-12-15T19:00:39.519Z,0.76
2022-12-15T19:03:42.017Z,0.69
2022-12-15T19:06:44.845Z,0.77
2022-12-15T19:09:47.540Z,0.65
2022-12-15T19:12:52.815Z,0.74
2022-12-15T19:16:00.208Z,0.79
2022-12-15T19:19:21.381Z,0.71
2022-12-15T19:22:26.812Z,0.61
2022-12-15T19:25:29.793Z,0.53
2022-12-15T19:28:33.151Z,0.59
2022-12-15T19:31:35.411Z,0.50
2022-12-15T19:34:38.035Z,0.52
2022-12-15T19:37:41.808Z,0.52
2022-12-15T19:40:44.292Z,0.32
2022-12-15T19:43:46.767Z,0.29
2022-12-15T19:46:49.133Z,0.19
2022-12-15T19:49:52.852Z,0.39
2022-12-15T19:53:00.290Z,0.25
2022-12-15T19:56:04.262Z,0.17
2022-12-15T19:59:14.049Z,0.10
2022-12-15T20:02:18.762Z,0.23
2022-12-15T20:05:25.564Z,0.28
2022-12-15T20:08:29.755Z,0.38
2022-12-15T20:11:32.956Z,0.32
2022-12-15T20:14:35.399Z,0.37
2022-12-15T20:17:37.679Z,0.39
2022-12-15T20:20:42.138Z,0.25
2022-12-15T20:23:50.356Z,0.27
2022-12-15T20:26:53.118Z,0.25
2022-12-15T20:29:57.135Z,0.19
2022-12-15T20:33:00.794Z,0.28
2022-12-15T20:36:03.402Z,0.28
2022-12-15T20:39:18.281Z,0.21
2022-12-15T20:42:21.813Z,0.21
2022-12-15T20:45:26.074Z,0.01
2022-12-15T20:48:30.042Z,-0.01
2022-12-15T20:51:33.437Z,0.15
2022-12-15T20:54:35.842Z,0.04
2022-12-15T20:57:38.212Z,0.10
2022-12-15T21:00:40.448Z,0.12
2022-12-15T21:03:43.680Z,0.11
2022-12-15T21:06:49.947Z,0.11
2022-12-15T21:09:56.740Z,0.00
2022-12-15T21:12:58.928Z,0.06
2022-12-15T21:16:01.134Z,0.20
2022-12-15T21:19:20.757Z,0.24
2022-12-15T21:22:25.599Z,0.17
2022-12-15T21:25:29.093Z,0.25
2022-12-15T21:28:31.597Z,0.19
2022-12-15T21:31:34.262Z,0.16
2022-12-15T21:34:36.923Z,0.11
2022-12-15T21:37:39.083Z,0.05
2022-12-15T21:40:41.697Z,0.11
2022-12-15T21:43:43.883Z,0.13
2022-12-15T21:46:46.108Z,0.18
2022-12-15T21:49:48.287Z,0.18
2022-12-15T21:52:50.543Z,0.25
2022-12-15T21:55:53.944Z,0.26
2022-12-15T21:58:56.686Z,0.34
2022-12-15T22:02:02.384Z,0.36
2022-12-15T22:05:19.312Z,0.39
2022-12-15T22:08:22.371Z,0.26
2022-12-15T22:11:30.110Z,0.25
2022-12-15T22:14:33.848Z,0.26
2022-12-15T22:17:35.993Z,0.21
2022-12-15T22:20:38.239Z,0.20
2022-12-15T22:23:40.434Z,0.30
2022-12-15T22:26:42.698Z,0.20
2022-12-15T22:29:44.897Z,0.22
2022-12-15T22:32:47.090Z,0.18
2022-12-15T22:35:54.927Z,0.26
2022-12-15T22:38:57.172Z,0.26
2022-12-15T22:42:00.030Z,0.26
2022-12-15T22:45:02.412Z,0.21
2022-12-15T22:48:04.740Z,0.34
2022-12-15T22:51:07.879Z,0.25
2022-12-15T22:54:24.995Z,0.26
2022-12-15T22:57:28.598Z,0.49
2022-12-15T23:00:30.744Z,0.42
2022-12-15T23:03:33.775Z,0.54
2022-12-15T23:06:36.323Z,0.49
2022-12-15T23:09:39.199Z,0.53
2022-12-15T23:12:41.550Z,0.59
2022-12-15T23:16:02.512Z,0.58
2022-12-15T23:19:05.195Z,0.52
2022-12-15T23:22:07.444Z,0.52
2022-12-15T23:25:09.674Z,0.66
2022-12-15T23:28:11.887Z,0.69
2022-12-15T23:31:14.132Z,0.62
2022-12-15T23:34:16.456Z,0.55
2022-12-15T23:37:18.642Z,0.71
2022-12-15T23:40:22.343Z,0.72
2022-12-15T23:43:26.446Z,0.77
2022-12-15T23:46:28.689Z,0.81
2022-12-15T23:49:31.021Z,0.78
2022-12-15T23:52:33.570Z,0.70
2022-12-15T23:55:36.377Z,0.71
2022-12-15T23:58:39.629Z,0.68
